createdAt,value
2022-08-28T00:01:21.539Z,57.72
2022-08-28T00:06:24.722Z,58.23
2022-08-28T00:11:27.735Z,58.87
2022-08-28T00:16:31.680Z,59.47
2022-08-28T00:21:34.780Z,59.53
2022-08-28T00:26:56.822Z,59.84
2022-08-28T00:31:59.880Z,59.93
2022-08-28T00:37:02.960Z,60.93
2022-08-28T00:42:06.311Z,61.77
2022-08-28T00:47:10.248Z,61.36
2022-08-28T00:52:16.215Z,61.15
2022-08-28T00:57:29.223Z,62.02
2022-08-28T01:02:32.357Z,67.63
2022-08-28T01:07:38.665Z,63.67
2022-08-28T01:12:42.515Z,55.85
2022-08-28T01:17:51.638Z,55.19
2022-08-28T01:23:01.057Z,56.18
2022-08-28T01:28:12.650Z,57.59
2022-08-28T01:33:16.897Z,58.46
2022-08-28T01:38:20.219Z,59.06
2022-08-28T01:43:31.611Z,60.08
2022-08-28T01:48:40.499Z,60.89
2022-08-28T01:53:45.408Z,61.40
2022-08-28T01:58:50.219Z,62.23
2022-08-28T02:03:53.251Z,67.52
2022-08-28T02:08:56.367Z,64.00
2022-08-28T02:14:00.320Z,57.19
2022-08-28T02:19:04.427Z,54.39
2022-08-28T02:24:07.740Z,55.21
2022-08-28T02:29:12.470Z,56.63
2022-08-28T02:34:15.471Z,58.25
2022-08-28T02:39:18.305Z,59.24
2022-08-28T02:44:21.454Z,59.60
2022-08-28T02:49:24.510Z,61.05
2022-08-28T02:54:27.388Z,61.81
2022-08-28T02:59:30.421Z,61.33
2022-08-28T03:04:36.181Z,67.10
2022-08-28T03:09:41.840Z,63.49
2022-08-28T03:14:44.813Z,55.49
2022-08-28T03:19:50.229Z,55.11
2022-08-28T03:24:53.232Z,56.55
2022-08-28T03:29:56.193Z,57.88
2022-08-28T03:34:59.194Z,59.16
2022-08-28T03:40:02.144Z,59.95
2022-08-28T03:45:09.289Z,60.30
2022-08-28T03:50:13.228Z,61.34
2022-08-28T03:55:19.001Z,62.33
2022-08-28T04:00:22.112Z,68.25
2022-08-28T04:05:25.379Z,63.50
2022-08-28T04:10:29.840Z,56.53
2022-08-28T04:15:32.868Z,55.54
2022-08-28T04:20:36.664Z,56.91
2022-08-28T04:25:41.036Z,58.07
2022-08-28T04:30:44.027Z,59.42
2022-08-28T04:35:47.142Z,59.09
2022-08-28T04:40:50.163Z,57.83
2022-08-28T04:45:53.024Z,55.27
2022-08-28T04:50:56.065Z,53.37
2022-08-28T04:56:00.800Z,51.89
2022-08-28T05:01:15.856Z,49.67
2022-08-28T05:06:19.026Z,48.29
2022-08-28T05:11:33.260Z,46.64
2022-08-28T05:17:04.169Z,46.18
2022-08-28T05:22:07.350Z,46.31
2022-08-28T05:27:10.842Z,46.87
2022-08-28T05:32:13.794Z,45.95
2022-08-28T05:37:19.764Z,44.28
2022-08-28T05:42:22.913Z,43.30
2022-08-28T05:47:32.873Z,42.48
2022-08-28T05:52:36.497Z,41.55
2022-08-28T05:57:41.114Z,42.61
2022-08-28T06:02:44.652Z,44.62
2022-08-28T06:07:47.629Z,46.37
2022-08-28T06:12:50.680Z,48.26
2022-08-28T06:17:53.882Z,49.87
2022-08-28T06:22:56.864Z,51.07
2022-08-28T06:27:59.827Z,52.41
2022-08-28T06:33:04.215Z,53.59
2022-08-28T06:38:07.255Z,54.59
2022-08-28T06:43:11.022Z,55.35
2022-08-28T06:48:17.760Z,55.97
2022-08-28T06:53:30.927Z,56.00
2022-08-28T06:58:39.474Z,56.61
2022-08-28T07:03:44.453Z,56.75
2022-08-28T07:08:48.237Z,56.93
2022-08-28T07:13:55.369Z,57.19
2022-08-28T07:18:59.892Z,57.67
2022-08-28T07:24:04.769Z,57.85
2022-08-28T07:29:10.148Z,58.07
2022-08-28T07:34:17.196Z,58.41
2022-08-28T07:39:20.291Z,58.86
2022-08-28T07:44:41.892Z,58.98
2022-08-28T07:49:45.198Z,59.31
2022-08-28T07:54:49.206Z,59.11
2022-08-28T07:59:52.624Z,59.13
2022-08-28T08:04:55.968Z,59.36
2022-08-28T08:09:59.012Z,59.91
2022-08-28T08:15:02.039Z,59.64
2022-08-28T08:20:07.389Z,59.90
2022-08-28T08:25:10.443Z,60.16
2022-08-28T08:30:13.673Z,60.17
2022-08-28T08:35:17.427Z,60.29
2022-08-28T08:40:20.800Z,60.29
2022-08-28T08:45:26.819Z,60.21
2022-08-28T08:50:34.608Z,60.46
2022-08-28T08:55:47.724Z,60.74
2022-08-28T09:01:32.658Z,61.01
2022-08-28T09:06:52.967Z,60.61
2022-08-28T09:12:09.276Z,60.40
2022-08-28T09:17:16.790Z,60.14
2022-08-28T09:22:19.781Z,60.07
2022-08-28T09:27:30.000Z,60.11
2022-08-28T09:32:43.730Z,60.53
2022-08-28T09:37:46.857Z,60.52
2022-08-28T09:43:25.406Z,60.02
2022-08-28T09:48:41.498Z,59.67
2022-08-28T09:53:56.980Z,59.63
2022-08-28T09:59:06.026Z,59.19
2022-08-28T10:04:26.133Z,59.05
2022-08-28T10:09:47.964Z,59.08
2022-08-28T10:15:05.457Z,57.76
2022-08-28T10:20:26.893Z,57.81
2022-08-28T10:25:50.265Z,57.10
2022-08-28T10:31:15.529Z,57.20
2022-08-28T10:36:34.683Z,57.14
2022-08-28T10:41:55.179Z,56.77
2022-08-28T10:46:59.186Z,56.57
2022-08-28T10:52:34.004Z,56.50
2022-08-28T10:57:52.352Z,55.79
2022-08-28T11:03:01.914Z,55.79
2022-08-28T11:08:23.670Z,55.93
2022-08-28T11:13:39.302Z,55.74
2022-08-28T11:19:20.090Z,55.98
2022-08-28T11:24:59.313Z,55.99
2022-08-28T11:30:11.598Z,56.09
2022-08-28T11:35:51.352Z,55.28
2022-08-28T11:40:57.213Z,54.99
2022-08-28T11:46:00.226Z,55.21
2022-08-28T11:51:18.281Z,55.03
2022-08-28T11:56:59.562Z,53.79
2022-08-28T12:02:40.160Z,53.29
2022-08-28T12:07:50.322Z,53.30
2022-08-28T12:13:02.493Z,52.76
2022-08-28T12:18:13.585Z,52.07
2022-08-28T12:23:38.160Z,52.06
2022-08-28T12:28:50.875Z,50.94
2022-08-28T12:34:03.996Z,51.20
2022-08-28T12:39:18.293Z,50.69
2022-08-28T12:44:32.974Z,49.66
2022-08-28T12:49:38.738Z,49.03
2022-08-28T12:54:42.827Z,49.66
2022-08-28T12:59:49.417Z,50.55
2022-08-28T13:05:07.676Z,51.33
2022-08-28T13:10:24.649Z,50.25
2022-08-28T13:15:48.031Z,50.44
2022-08-28T13:20:51.019Z,50.70
2022-08-28T13:26:07.190Z,51.35
2022-08-28T13:31:41.218Z,51.70
2022-08-28T13:36:45.550Z,51.79
2022-08-28T13:41:54.030Z,52.15
2022-08-28T13:46:59.960Z,52.26
2022-08-28T13:52:07.121Z,52.72
2022-08-28T13:57:10.154Z,53.04
2022-08-28T14:02:33.571Z,53.93
2022-08-28T14:07:37.329Z,54.83
2022-08-28T14:12:43.395Z,55.74
2022-08-28T14:17:46.529Z,56.43
2022-08-28T14:22:49.600Z,56.95
2022-08-28T14:27:52.597Z,57.73
2022-08-28T14:32:56.265Z,58.45
2022-08-28T14:37:59.366Z,58.98
2022-08-28T14:43:02.375Z,59.65
2022-08-28T14:48:05.384Z,60.10
2022-08-28T14:53:10.739Z,60.52
2022-08-28T14:58:15.826Z,60.78
2022-08-28T15:03:20.157Z,60.66
2022-08-28T15:08:23.139Z,60.87
2022-08-28T15:13:26.110Z,61.15
2022-08-28T15:18:34.699Z,61.42
2022-08-28T15:23:37.657Z,61.49
2022-08-28T15:28:41.088Z,61.79
2022-08-28T15:33:45.521Z,62.10
2022-08-28T15:39:07.224Z,67.13
2022-08-28T15:44:14.878Z,63.58
2022-08-28T15:49:20.554Z,56.99
2022-08-28T15:54:27.795Z,55.57
2022-08-28T15:59:47.930Z,56.24
2022-08-28T16:04:54.918Z,57.41
2022-08-28T16:09:57.991Z,59.00
2022-08-28T16:15:01.158Z,60.44
2022-08-28T16:20:12.376Z,61.69
2022-08-28T16:25:16.115Z,68.04
2022-08-28T16:30:19.291Z,66.38
2022-08-28T16:35:27.022Z,61.98
2022-08-28T16:40:30.142Z,57.50
2022-08-28T16:45:33.850Z,57.63
2022-08-28T16:50:36.984Z,59.24
2022-08-28T16:55:43.588Z,59.83
2022-08-28T17:00:52.341Z,61.47
2022-08-28T17:05:58.902Z,68.41
2022-08-28T17:11:01.917Z,66.89
2022-08-28T17:16:06.157Z,62.71
2022-08-28T17:21:28.773Z,61.06
2022-08-28T17:26:31.763Z,57.51
2022-08-28T17:31:34.895Z,58.24
2022-08-28T17:36:40.578Z,59.91
2022-08-28T17:41:43.696Z,61.07
2022-08-28T17:46:46.793Z,67.06
2022-08-28T17:51:49.902Z,65.18
2022-08-28T17:56:54.563Z,61.21
2022-08-28T18:01:57.648Z,57.71
2022-08-28T18:07:02.002Z,58.78
2022-08-28T18:12:06.952Z,61.22
2022-08-28T18:17:16.440Z,66.25
2022-08-28T18:22:19.491Z,62.89
2022-08-28T18:27:22.832Z,59.36
2022-08-28T18:32:25.956Z,56.85
2022-08-28T18:37:29.045Z,59.10
2022-08-28T18:42:32.059Z,61.13
2022-08-28T18:47:35.925Z,66.36
2022-08-28T18:52:39.395Z,63.47
2022-08-28T18:57:42.646Z,59.83
2022-08-28T19:02:46.233Z,57.19
2022-08-28T19:07:50.575Z,59.19
2022-08-28T19:12:53.653Z,61.21
2022-08-28T19:17:56.728Z,65.99
2022-08-28T19:23:00.077Z,62.79
2022-08-28T19:28:03.494Z,58.73
2022-08-28T19:33:07.133Z,57.06
2022-08-28T19:38:10.212Z,59.14
2022-08-28T19:43:16.747Z,60.70
2022-08-28T19:48:20.095Z,65.78
2022-08-28T19:53:23.099Z,62.53
2022-08-28T19:58:26.380Z,57.97
2022-08-28T20:03:30.413Z,57.45
2022-08-28T20:08:34.486Z,59.67
2022-08-28T20:13:37.535Z,61.31
2022-08-28T20:18:40.570Z,66.42
2022-08-28T20:23:43.514Z,62.99
2022-08-28T20:28:46.663Z,58.76
2022-08-28T20:33:51.700Z,57.18
2022-08-28T20:38:55.064Z,59.57
2022-08-28T20:43:58.088Z,61.36
2022-08-28T20:49:03.699Z,66.24
2022-08-28T20:54:06.991Z,62.76
2022-08-28T20:59:10.739Z,58.45
2022-08-28T21:04:13.704Z,57.31
2022-08-28T21:09:17.200Z,59.30
2022-08-28T21:14:20.233Z,60.72
2022-08-28T21:19:23.730Z,66.06
2022-08-28T21:24:27.427Z,63.03
2022-08-28T21:29:30.443Z,59.43
2022-08-28T21:34:33.433Z,56.61
2022-08-28T21:39:36.399Z,58.67
2022-08-28T21:44:39.679Z,60.44
2022-08-28T21:49:50.310Z,65.85
2022-08-28T21:55:02.862Z,62.84
2022-08-28T22:00:13.113Z,58.54
2022-08-28T22:05:16.503Z,57.31
2022-08-28T22:10:19.601Z,59.82
2022-08-28T22:15:23.249Z,61.53
2022-08-28T22:20:28.163Z,67.02
2022-08-28T22:25:31.604Z,63.72
2022-08-28T22:30:35.056Z,60.31
2022-08-28T22:35:38.667Z,56.92
2022-08-28T22:40:42.162Z,58.06
2022-08-28T22:45:48.912Z,60.09
2022-08-28T22:51:00.109Z,61.45
2022-08-28T22:56:03.834Z,67.84
2022-08-28T23:01:17.738Z,65.31
2022-08-28T23:06:21.803Z,61.95
2022-08-28T23:11:24.814Z,59.39
2022-08-28T23:16:28.077Z,56.67
2022-08-28T23:21:31.916Z,58.52
2022-08-28T23:26:35.098Z,60.17
2022-08-28T23:31:39.084Z,65.97
2022-08-28T23:36:42.974Z,64.07
2022-08-28T23:41:46.800Z,60.68
2022-08-28T23:46:49.794Z,57.27
2022-08-28T23:51:52.787Z,58.53
2022-08-28T23:56:55.809Z,60.82
